Time;durP1;ratioP1;P1;durP2;ratioP2;P2;SDS_P1;SDS_P2;PMS_P1;PMS_P2;Temp;Humidity;BMP_temperature;BMP_pressure;BME280_temperature;BME280_humidity;BME280_pressure;Samples;Min_cycle;Max_cycle;Signal;HPM_P1;HPM_P2
2023/09/04 06:12:58;;;;;;;11.40;5.20;;;;;;;18.28;79.15;101597.47;4837905;29;20602;-73
2023/09/04 06:15:26;;;;;;;11.03;6.60;;;;;;;18.32;79.03;101598.78;4828765;29;20208;-70
2023/09/04 06:17:53;;;;;;;10.30;6.53;;;;;;;18.35;79.03;101593.06;4840644;29;20334;-70
2023/09/04 06:20:21;;;;;;;13.73;6.37;;;;;;;18.39;79.55;101589.03;4873206;29;20217;-73
2023/09/04 06:22:49;;;;;;;13.47;7.23;;;;;;;18.43;79.43;101601.09;4909090;29;20840;-73
2023/09/04 06:25:17;;;;;;;14.43;5.93;;;;;;;18.49;79.01;101593.34;4909785;29;20215;-71
2023/09/04 06:27:45;;;;;;;12.90;6.83;;;;;;;18.53;79.14;101586.66;4909667;29;20221;-75
2023/09/04 06:30:14;;;;;;;13.63;6.43;;;;;;;18.62;78.51;101582.94;4907728;29;20209;-73
2023/09/04 06:32:46;;;;;;;15.00;6.80;;;;;;;18.70;78.44;101585.59;4907548;29;20216;-69
2023/09/04 06:35:14;;;;;;;13.83;7.67;;;;;;;18.72;78.75;101583.59;4904797;29;20213;-68
2023/09/04 06:38:44;;;;;;;12.03;6.77;;;;;;;18.81;78.27;101566.41;4906992;29;20808;-71
2023/09/04 06:41:16;;;;;;;15.77;6.87;;;;;;;18.88;78.47;101571.91;4909244;29;20228;-68
2023/09/04 06:43:48;;;;;;;16.50;7.03;;;;;;;18.92;78.62;101565.16;4910528;29;20238;-74
2023/09/04 06:46:25;;;;;;;11.57;6.83;;;;;;;18.97;78.70;101570.88;4910349;29;20220;-73
2023/09/04 06:48:58;;;;;;;13.17;6.93;;;;;;;19.01;78.78;101570.31;4904369;29;20215;-75
2023/09/04 06:51:29;;;;;;;11.23;6.80;;;;;;;19.05;78.20;101574.34;4905305;29;20695;-71
2023/09/04 06:54:03;;;;;;;13.07;7.77;;;;;;;19.09;78.63;101570.28;4907748;29;20215;-72
2023/09/04 06:56:51;;;;;;;11.73;7.17;;;;;;;19.12;78.63;101575.31;4909883;29;20216;-74
2023/09/04 06:59:28;;;;;;;13.77;8.00;;;;;;;19.16;78.63;101573.94;4907984;29;20208;-70
2023/09/04 07:02:06;;;;;;;12.23;7.87;;;;;;;19.20;78.04;101574.41;4910255;29;20209;-72
2023/09/04 07:04:38;;;;;;;18.53;7.67;;;;;;;19.26;78.13;101567.50;4907053;29;20216;-73
2023/09/04 07:07:10;;;;;;;10.27;7.17;;;;;;;19.32;77.71;101569.47;4909858;29;20252;-74
2023/09/04 07:09:49;;;;;;;11.57;7.27;;;;;;;19.35;78.25;101563.75;4908776;29;20272;-71
2023/09/04 07:12:18;;;;;;;11.80;7.10;;;;;;;19.37;78.12;101557.16;4907692;29;20197;-68
2023/09/04 07:14:46;;;;;;;17.17;6.67;;;;;;;19.42;77.64;101553.94;4907872;29;20205;-75
2023/09/04 07:17:28;;;;;;;12.20;6.07;;;;;;;19.47;77.77;101546.16;4904981;29;20242;-67
2023/09/04 07:19:56;;;;;;;10.90;7.27;;;;;;;19.53;76.93;101550.84;4907691;29;20287;-71
2023/09/04 07:22:28;;;;;;;10.90;6.20;;;;;;;19.61;76.43;101558.88;4907750;29;20219;-73
2023/09/04 07:24:59;;;;;;;13.03;6.10;;;;;;;19.65;76.31;101544.03;4907892;29;20216;-73
2023/09/04 07:27:37;;;;;;;12.27;6.03;;;;;;;19.73;76.21;101552.03;4907773;29;20651;-73
2023/09/04 07:30:30;;;;;;;9.77;6.40;;;;;;;19.82;75.62;101556.31;4906261;29;20220;-71
2023/09/04 07:33:02;;;;;;;12.20;6.53;;;;;;;19.91;74.91;101560.59;4903516;29;20754;-72
2023/09/04 07:35:31;;;;;;;12.80;6.70;;;;;;;20.00;74.75;101569.44;4906092;29;20228;-72
2023/09/04 07:37:59;;;;;;;11.57;6.77;;;;;;;20.10;74.12;101558.41;4906940;29;20300;-73
2023/09/04 07:43:55;;;;;;;10.40;6.07;;;;;;;20.27;73.33;101559.91;4886782;29;20217;-71
2023/09/04 07:50:29;;;;;;;8.80;5.50;;;;;;;20.47;72.67;101569.16;4890596;29;20216;-74
2023/09/04 07:53:31;;;;;;;12.57;6.50;;;;;;;20.55;72.08;101577.13;4907617;29;20235;-70
2023/09/04 07:56:02;;;;;;;10.83;5.90;;;;;;;20.66;72.93;101567.75;4907834;29;20208;-73
2023/09/04 07:58:30;;;;;;;12.43;6.63;;;;;;;20.75;71.55;101557.69;4906386;29;21025;-72
2023/09/04 08:01:33;;;;;;;12.40;5.63;;;;;;;20.85;72.42;101555.50;4906583;29;20209;-72
2023/09/04 08:04:02;;;;;;;9.20;5.23;;;;;;;20.98;71.36;101559.22;4906856;29;20204;-74
2023/09/04 08:06:31;;;;;;;7.67;4.97;;;;;;;21.09;71.37;101559.75;4905025;29;20249;-73
2023/09/04 08:09:06;;;;;;;6.87;4.33;;;;;;;21.22;71.54;101562.59;4904233;29;20204;-74
2023/09/04 08:11:35;;;;;;;11.40;4.70;;;;;;;21.37;70.96;101569.59;4905701;29;20240;-70
2023/09/04 08:14:04;;;;;;;10.00;4.68;;;;;;;21.56;69.04;101564.59;4905005;29;20224;-70
2023/09/04 08:16:33;;;;;;;7.47;5.03;;;;;;;21.69;68.37;101557.47;4909364;29;20213;-72
2023/09/04 08:19:01;;;;;;;9.30;4.82;;;;;;;21.87;67.41;101554.28;4905281;29;20328;-75
2023/09/04 08:21:29;;;;;;;8.13;4.55;;;;;;;22.03;67.95;101556.72;4907719;29;20209;-72
2023/09/04 08:23:57;;;;;;;5.90;4.38;;;;;;;22.21;67.75;101549.97;4908159;29;20324;-71
2023/09/04 08:26:28;;;;;;;7.20;3.85;;;;;;;22.37;67.02;101549.66;4904249;29;20212;-74
2023/09/04 08:28:57;;;;;;;8.57;4.32;;;;;;;22.52;66.66;101545.78;4905989;29;20205;-73
2023/09/04 08:31:31;;;;;;;7.40;3.90;;;;;;;22.70;66.59;101537.13;4904777;29;20213;-72
2023/09/04 08:34:00;;;;;;;12.02;4.60;;;;;;;22.89;65.29;101540.97;4905871;29;20228;-73
2023/09/04 08:36:31;;;;;;;6.13;4.25;;;;;;;23.08;63.72;101537.50;4904487;29;20216;-73
2023/09/04 08:39:00;;;;;;;8.30;3.63;;;;;;;23.25;61.93;101548.78;4904670;29;20815;-70
2023/09/04 08:41:31;;;;;;;4.93;3.70;;;;;;;23.40;60.71;101543.16;4887732;29;20233;-68
2023/09/04 08:44:00;;;;;;;6.95;3.88;;;;;;;23.54;60.78;101545.72;4906634;29;20723;-74
2023/09/04 08:49:38;;;;;;;9.20;3.58;;;;;;;23.95;58.42;101550.91;4907505;29;20573;-72
2023/09/04 08:52:24;;;;;;;7.63;3.47;;;;;;;24.20;57.97;101548.38;4910383;29;20256;-69
2023/09/04 08:55:05;;;;;;;16.15;4.05;;;;;;;24.42;58.21;101561.72;4908524;29;20205;-78
2023/09/04 09:00:33;;;;;;;5.70;3.55;;;;;;;24.85;55.56;101551.13;4899082;29;20212;-73
2023/09/04 09:03:03;;;;;;;6.70;3.80;;;;;;;25.09;55.25;101542.25;4909483;29;20749;-72
2023/09/04 09:05:37;;;;;;;9.38;3.10;;;;;;;25.39;54.21;101553.34;4909694;29;20641;-70
2023/09/04 09:08:10;;;;;;;8.00;3.25;;;;;;;25.70;52.85;101539.75;4907790;29;20208;-69
2023/09/04 09:14:00;;;;;;;7.28;3.35;;;;;;;26.29;49.04;101537.56;4895536;29;20242;-74
2023/09/04 09:16:29;;;;;;;5.55;3.08;;;;;;;26.58;49.64;101543.03;4909937;29;20605;-70
2023/09/04 09:19:05;;;;;;;4.40;3.08;;;;;;;26.86;49.12;101538.94;4908525;29;20233;-74
2023/09/04 09:24:49;;;;;;;8.20;4.40;;;;;;;26.84;47.79;101538.31;4911694;29;20296;-73
2023/09/04 09:27:28;;;;;;;8.77;4.13;;;;;;;26.50;48.60;101535.19;4911465;29;20216;-72
2023/09/04 09:29:59;;;;;;;5.70;3.70;;;;;;;26.43;49.35;101531.72;4911529;29;20213;-72
2023/09/04 09:33:09;;;;;;;8.82;3.40;;;;;;;27.40;47.54;101529.78;4914519;29;20610;-74
2023/09/04 09:35:44;;;;;;;7.32;4.35;;;;;;;28.45;45.11;101527.09;4912643;29;20208;-73
2023/09/04 09:38:13;;;;;;;7.03;3.30;;;;;;;28.28;45.58;101529.75;4911499;29;20209;-73
2023/09/04 09:40:49;;;;;;;8.07;4.15;;;;;;;27.79;45.32;101528.34;4911876;29;20221;-74
2023/09/04 09:43:19;;;;;;;6.60;3.78;;;;;;;27.00;45.66;101523.28;4911106;29;20239;-74
2023/09/04 09:45:53;;;;;;;3.70;2.97;;;;;;;26.30;47.40;101518.28;4910570;29;20211;-72
2023/09/04 09:48:23;;;;;;;8.25;3.85;;;;;;;25.93;48.14;101511.13;4911472;29;20256;-73
2023/09/04 09:50:54;;;;;;;9.40;4.88;;;;;;;26.11;48.48;101516.59;4912663;29;20212;-74
2023/09/04 09:53:46;;;;;;;6.40;4.05;;;;;;;26.55;48.31;101515.50;4910606;29;20679;-75
2023/09/04 09:56:15;;;;;;;9.63;4.13;;;;;;;29.04;43.55;101514.94;4911372;29;20216;-73
2023/09/04 09:58:53;;;;;;;5.13;3.40;;;;;;;30.13;40.85;101503.59;4910917;29;20236;-70
2023/09/04 10:01:31;;;;;;;7.63;2.90;;;;;;;29.49;41.42;101501.25;4911915;29;20298;-71
2023/09/04 10:04:01;;;;;;;5.60;2.85;;;;;;;28.99;42.79;101492.16;4910678;29;20216;-74
2023/09/04 10:06:34;;;;;;;5.93;3.08;;;;;;;31.67;37.94;101495.69;4909277;29;20205;-72
2023/09/04 10:09:03;;;;;;;5.00;2.65;;;;;;;34.14;33.76;101487.41;4911530;29;20888;-73
2023/09/04 10:11:36;;;;;;;5.35;2.80;;;;;;;32.79;35.31;101479.81;4910813;29;20213;-73
2023/09/04 10:14:13;;;;;;;4.93;2.60;;;;;;;31.18;37.63;101483.22;4911236;29;20970;-73
2023/09/04 10:16:57;;;;;;;5.78;2.60;;;;;;;29.84;37.73;101481.00;4909892;29;20205;-75
2023/09/04 10:19:43;;;;;;;3.38;2.50;;;;;;;29.14;39.09;101470.59;4910707;29;20288;-73
2023/09/04 10:22:16;;;;;;;3.60;2.40;;;;;;;28.21;40.15;101479.16;4911025;29;20205;-74
2023/09/04 10:24:50;;;;;;;3.20;2.25;;;;;;;28.20;40.06;101472.03;4911370;29;20201;-73
2023/09/04 10:27:20;;;;;;;4.57;2.50;;;;;;;27.86;41.84;101473.72;4910913;29;20208;-73
2023/09/04 10:29:55;;;;;;;3.95;2.47;;;;;;;28.02;40.89;101462.06;4909385;29;20248;-75
2023/09/04 10:32:26;;;;;;;4.15;2.20;;;;;;;27.44;41.36;101457.44;4910566;29;20288;-71
2023/09/04 10:34:54;;;;;;;3.72;2.40;;;;;;;26.85;42.60;101461.06;4910923;29;20205;-71
2023/09/04 10:37:24;;;;;;;3.40;2.30;;;;;;;26.35;43.06;101457.78;4909688;29;20672;-72
2023/09/04 10:39:52;;;;;;;4.47;2.67;;;;;;;25.99;43.89;101459.41;4908041;29;20662;-70
2023/09/04 10:42:27;;;;;;;4.38;2.30;;;;;;;25.80;42.88;101455.84;4908793;29;20251;-72
2023/09/04 10:44:56;;;;;;;3.75;2.20;;;;;;;25.71;42.69;101454.50;4909630;29;20268;-69
2023/09/04 10:47:25;;;;;;;3.80;2.45;;;;;;;25.51;42.96;101447.56;4909364;29;20204;-70
2023/09/04 10:49:53;;;;;;;3.67;2.20;;;;;;;25.38;43.77;101454.75;4907819;29;20261;-70
2023/09/04 10:52:21;;;;;;;3.47;1.90;;;;;;;25.29;43.23;101447.13;4908228;29;20217;-75
2023/09/04 10:55:15;;;;;;;3.08;2.10;;;;;;;25.24;43.45;101446.97;4906336;29;20614;-72
2023/09/04 10:57:57;;;;;;;3.28;2.22;;;;;;;25.10;43.75;101441.63;4909672;29;20211;-73
2023/09/04 11:00:30;;;;;;;4.22;2.50;;;;;;;25.10;42.73;101438.91;4910846;29;20276;-72
2023/09/04 11:03:12;;;;;;;5.63;2.30;;;;;;;25.15;42.41;101438.25;4907006;29;20272;-70
2023/09/04 11:06:12;;;;;;;3.58;2.22;;;;;;;25.21;42.37;101431.09;4908568;29;20205;-73
2023/09/04 11:08:50;;;;;;;4.28;2.47;;;;;;;25.22;42.78;101428.19;4873959;29;20217;-70
2023/09/04 11:11:24;;;;;;;4.82;2.10;;;;;;;25.51;42.13;101423.94;4907531;29;20548;-73
2023/09/04 11:14:02;;;;;;;3.55;2.05;;;;;;;25.71;41.05;101421.06;4907668;29;20264;-72
2023/09/04 11:16:37;;;;;;;3.20;2.00;;;;;;;25.58;41.58;101424.72;4907867;29;20205;-72
2023/09/04 11:19:09;;;;;;;2.92;2.05;;;;;;;25.69;41.44;101424.00;4907706;29;20239;-74
2023/09/04 11:21:38;;;;;;;4.07;2.05;;;;;;;25.60;41.45;101409.03;4908700;29;20244;-70
2023/09/04 11:24:07;;;;;;;3.42;2.45;;;;;;;25.62;40.94;101416.97;4909476;29;20276;-75
2023/09/04 11:26:36;;;;;;;3.13;2.10;;;;;;;25.75;41.51;101416.84;4909497;29;20248;-74
2023/09/04 11:29:05;;;;;;;3.78;2.10;;;;;;;27.61;38.71;101406.69;4907969;29;20217;-72
2023/09/04 11:31:34;;;;;;;4.18;2.17;;;;;;;29.83;34.74;101408.28;4910717;29;20213;-73
2023/09/04 11:34:04;;;;;;;2.95;2.05;;;;;;;30.74;33.93;101406.66;4909897;29;20209;-72
2023/09/04 11:36:37;;;;;;;3.30;1.80;;;;;;;31.04;32.39;101403.38;4910013;29;20945;-74
2023/09/04 11:39:08;;;;;;;6.05;2.13;;;;;;;31.38;32.15;101395.69;4909825;29;20217;-72
2023/09/04 11:41:35;;;;;;;3.80;2.20;;;;;;;31.85;31.39;101392.13;4909886;29;20236;-75
2023/09/04 11:44:05;;;;;;;5.15;2.20;;;;;;;31.68;30.43;101393.16;4910333;29;20220;-70
2023/09/04 11:46:34;;;;;;;4.55;1.98;;;;;;;31.37;30.75;101388.56;4911292;29;20244;-74
2023/09/04 11:49:03;;;;;;;4.25;2.10;;;;;;;30.51;31.73;101388.66;4909396;29;20205;-73
2023/09/04 11:51:33;;;;;;;5.03;2.42;;;;;;;30.30;32.63;101386.72;4909860;29;20763;-73
2023/09/04 11:54:04;;;;;;;4.30;2.15;;;;;;;30.79;32.50;101383.94;4910208;29;20283;-74
2023/09/04 11:56:32;;;;;;;4.97;2.00;;;;;;;31.59;30.62;101377.44;4911457;29;20292;-71
2023/09/04 11:59:02;;;;;;;3.25;1.75;;;;;;;32.30;29.42;101383.28;4908791;29;20252;-72
2023/09/04 12:01:31;;;;;;;3.45;1.65;;;;;;;35.72;24.70;101366.69;4908884;29;20339;-69
2023/09/04 12:04:01;;;;;;;4.15;2.20;;;;;;;38.05;21.74;101357.22;4910198;29;20241;-75
2023/09/04 12:06:30;;;;;;;2.33;1.52;;;;;;;36.62;22.27;101357.41;4908952;29;20220;-76
2023/09/04 12:09:02;;;;;;;2.33;1.70;;;;;;;34.52;24.50;101354.56;4909446;29;20319;-75
2023/09/04 12:11:31;;;;;;;3.40;1.65;;;;;;;32.75;25.64;101355.09;4909931;29;20691;-73
2023/09/04 12:14:07;;;;;;;2.28;1.60;;;;;;;31.71;25.93;101359.72;4908527;29;20200;-73
2023/09/04 12:16:35;;;;;;;3.90;1.52;;;;;;;30.90;26.15;101348.19;4908631;29;20201;-73
2023/09/04 12:19:05;;;;;;;3.72;1.77;;;;;;;30.08;27.62;101361.34;4906687;29;20315;-76
2023/09/04 12:21:33;;;;;;;4.38;1.58;;;;;;;29.46;27.77;101356.13;4910143;29;20236;-72
2023/09/04 12:24:03;;;;;;;4.18;1.75;;;;;;;28.92;28.96;101338.63;4906115;29;20707;-74
2023/09/04 12:26:37;;;;;;;2.80;1.80;;;;;;;28.67;29.24;101336.28;4905764;29;20210;-73
2023/09/04 12:29:06;;;;;;;4.88;1.90;;;;;;;28.45;29.91;101344.31;4909474;29;20209;-74
2023/09/04 12:31:33;;;;;;;3.42;1.90;;;;;;;28.73;28.65;101332.53;4908512;29;20217;-73
2023/09/04 12:34:04;;;;;;;2.75;1.92;;;;;;;28.49;29.59;101329.13;4910787;29;20223;-72
2023/09/04 12:36:38;;;;;;;3.30;1.92;;;;;;;28.43;30.36;101316.47;4908586;29;20207;-74
2023/09/04 12:39:10;;;;;;;4.13;1.67;;;;;;;29.23;29.42;101318.06;4907951;29;20548;-73
2023/09/04 12:41:38;;;;;;;3.33;1.95;;;;;;;29.23;29.31;101313.41;4907933;29;21061;-70
2023/09/04 12:44:07;;;;;;;2.28;1.50;;;;;;;29.26;29.63;101315.66;4895968;29;20620;-73
2023/09/04 12:46:37;;;;;;;3.10;1.60;;;;;;;28.97;29.07;101312.22;4910721;29;20240;-74
2023/09/04 12:49:10;;;;;;;5.80;1.60;;;;;;;28.57;29.84;101309.63;4913136;29;20264;-73
2023/09/04 12:51:48;;;;;;;3.03;1.52;;;;;;;28.20;29.66;101316.59;4911796;29;21246;-69
2023/09/04 12:54:19;;;;;;;2.95;1.55;;;;;;;27.92;28.98;101304.56;4910931;29;20594;-74
2023/09/04 12:56:47;;;;;;;5.05;1.92;;;;;;;27.64;30.21;101312.72;4911211;29;20215;-74
2023/09/04 12:59:22;;;;;;;3.42;1.77;;;;;;;27.50;31.07;101305.84;4911927;29;20217;-73
2023/09/04 13:02:02;;;;;;;3.38;1.90;;;;;;;27.26;30.77;101305.91;4911494;29;20242;-72
2023/09/04 13:04:31;;;;;;;8.23;2.30;;;;;;;27.08;30.93;101299.75;4912108;29;20216;-72
2023/09/04 13:09:42;;;;;;;2.72;1.60;;;;;;;27.03;30.68;101288.72;4906974;29;20567;-73
2023/09/04 13:12:11;;;;;;;3.35;1.80;;;;;;;27.04;30.55;101290.38;4910120;29;21329;-72
2023/09/04 13:14:39;;;;;;;6.22;1.80;;;;;;;27.02;29.75;101282.44;4914584;29;20569;-73
2023/09/04 13:17:07;;;;;;;4.65;1.88;;;;;;;26.98;30.14;101285.91;4911030;29;20248;-72
2023/09/04 13:19:35;;;;;;;5.10;1.70;;;;;;;26.98;30.54;101280.44;4913274;29;20548;-71
2023/09/04 13:22:05;;;;;;;5.53;2.10;;;;;;;26.99;31.32;101274.78;4911559;29;20799;-72
2023/09/04 13:24:33;;;;;;;6.05;1.85;;;;;;;26.94;30.89;101266.47;4913068;29;20255;-72
2023/09/04 13:27:16;;;;;;;;;;;;;;;;;;;;;
2023/09/04 13:29:53;;;;;;;3.75;1.95;;;;;;;26.92;31.50;101261.25;4911320;29;20616;-73
2023/09/04 13:32:24;;;;;;;5.68;2.17;;;;;;;26.89;31.66;101252.72;4912283;29;20554;-71
2023/09/04 13:35:08;;;;;;;6.38;2.00;;;;;;;26.94;30.94;101258.31;4912418;29;20213;-73
2023/09/04 13:37:52;;;;;;;3.63;2.10;;;;;;;26.92;31.10;101255.00;4909516;29;20236;-74
2023/09/04 13:40:22;;;;;;;3.47;1.77;;;;;;;26.94;30.91;101248.25;4912554;29;20261;-72
2023/09/04 13:42:55;;;;;;;4.30;2.35;;;;;;;26.90;31.33;101251.66;4912035;29;20612;-70
2023/09/04 13:45:28;;;;;;;3.90;2.35;;;;;;;27.02;30.78;101249.78;4911022;29;20711;-71
2023/09/04 13:48:01;;;;;;;4.47;2.30;;;;;;;26.98;30.86;101243.19;4913696;29;20216;-72
2023/09/04 13:50:30;;;;;;;3.03;1.95;;;;;;;26.96;31.18;101242.59;4914130;29;20323;-72
2023/09/04 13:53:03;;;;;;;3.70;2.13;;;;;;;26.95;31.53;101239.03;4916589;29;20245;-72
2023/09/04 13:55:32;;;;;;;3.42;2.00;;;;;;;26.96;31.35;101237.13;4918351;29;20277;-72
2023/09/04 13:58:05;;;;;;;5.00;1.80;;;;;;;26.93;31.33;101234.88;4913510;29;20256;-70
2023/09/04 14:00:33;;;;;;;3.38;2.17;;;;;;;26.93;31.44;101235.72;4911930;29;20205;-71
2023/09/04 14:03:04;;;;;;;6.43;2.55;;;;;;;26.85;31.15;101230.59;4910886;29;20216;-72
2023/09/04 14:05:56;;;;;;;3.83;2.05;;;;;;;26.84;31.58;101228.94;4910820;29;20233;-72
2023/09/04 14:08:26;;;;;;;6.28;2.67;;;;;;;26.84;32.37;101219.94;4910667;29;20197;-73
2023/09/04 14:10:56;;;;;;;7.00;2.78;;;;;;;26.85;32.28;101225.16;4912282;29;20624;-73
2023/09/04 14:13:25;;;;;;;5.13;2.47;;;;;;;26.86;32.21;101217.81;4911076;29;20201;-70
2023/09/04 14:15:54;;;;;;;3.90;2.20;;;;;;;26.94;31.56;101214.78;4908061;29;20213;-70
2023/09/04 14:18:22;;;;;;;4.80;2.25;;;;;;;27.03;30.73;101210.63;4908791;29;20201;-71
2023/09/04 14:20:50;;;;;;;4.35;2.47;;;;;;;26.95;31.59;101205.53;4907374;29;20299;-72
2023/09/04 14:23:18;;;;;;;6.40;2.22;;;;;;;26.93;31.56;101204.94;4911982;29;20217;-73
2023/09/04 14:25:49;;;;;;;3.17;2.10;;;;;;;26.86;31.95;101207.75;4911219;29;20209;-73
2023/09/04 14:28:17;;;;;;;4.38;2.08;;;;;;;26.80;31.96;101200.56;4909537;29;20228;-72
2023/09/04 14:30:47;;;;;;;5.55;2.28;;;;;;;26.78;32.17;101199.13;4908448;29;20299;-71
2023/09/04 14:33:15;;;;;;;4.07;2.33;;;;;;;26.76;32.45;101202.09;4910472;29;20223;-74
2023/09/04 14:35:42;;;;;;;4.65;2.00;;;;;;;26.70;32.84;101203.03;4909145;29;20245;-73
2023/09/04 14:38:10;;;;;;;6.05;2.50;;;;;;;26.84;32.22;101204.44;4908129;29;20697;-73
2023/09/04 14:40:44;;;;;;;3.97;2.35;;;;;;;26.79;32.20;101204.34;4908004;29;20337;-69
2023/09/04 14:43:12;;;;;;;5.30;2.20;;;;;;;26.80;32.31;101203.28;4907810;29;20233;-73
2023/09/04 14:45:40;;;;;;;7.82;3.47;;;;;;;26.72;32.64;101202.81;4909499;29;20615;-73
2023/09/04 14:48:09;;;;;;;6.53;2.97;;;;;;;26.76;32.93;101201.25;4911079;29;20376;-73
2023/09/04 14:50:41;;;;;;;5.95;2.50;;;;;;;26.69;33.26;101200.56;4906745;29;20209;-75
2023/09/04 14:53:08;;;;;;;4.70;2.22;;;;;;;26.84;32.16;101195.44;4907422;29;20272;-72
2023/09/04 14:55:38;;;;;;;3.40;2.28;;;;;;;26.82;33.02;101194.88;4908089;29;20220;-74
2023/09/04 14:58:08;;;;;;;12.77;3.63;;;;;;;26.81;33.21;101193.22;4905982;29;20292;-71
2023/09/04 15:00:36;;;;;;;4.00;2.33;;;;;;;26.82;32.71;101187.56;4910089;29;20240;-74
2023/09/04 15:03:05;;;;;;;7.43;2.40;;;;;;;26.83;32.51;101186.47;4908690;29;20634;-72
2023/09/04 15:05:34;;;;;;;6.10;2.10;;;;;;;26.77;32.95;101183.88;4906490;29;20299;-73
2023/09/04 15:08:02;;;;;;;7.35;2.60;;;;;;;26.71;32.64;101182.09;4907080;29;20691;-75
2023/09/04 15:10:31;;;;;;;6.10;2.40;;;;;;;26.71;32.94;101179.38;4908748;29;20204;-72
2023/09/04 15:12:59;;;;;;;8.98;2.58;;;;;;;26.75;32.50;101177.84;4910115;29;20319;-73
2023/09/04 15:15:27;;;;;;;3.80;2.05;;;;;;;26.83;31.79;101180.19;4909225;29;20698;-75
2023/09/04 15:17:55;;;;;;;4.60;2.20;;;;;;;26.76;32.16;101176.78;4907389;29;20663;-73
2023/09/04 15:20:23;;;;;;;4.53;2.45;;;;;;;26.68;32.27;101177.13;4908388;29;20746;-72
2023/09/04 15:22:52;;;;;;;4.35;2.30;;;;;;;26.66;32.78;101173.81;4907999;29;20763;-73
2023/09/04 15:25:20;;;;;;;4.78;2.35;;;;;;;26.63;32.29;101179.75;4910380;29;20628;-73
2023/09/04 15:27:48;;;;;;;3.42;2.22;;;;;;;26.63;32.12;101177.03;4908452;29;20212;-72
2023/09/04 15:30:16;;;;;;;3.90;2.38;;;;;;;26.66;32.24;101176.53;4910123;29;20205;-72
2023/09/04 15:32:44;;;;;;;8.80;1.92;;;;;;;26.75;31.85;101173.22;4908203;29;20303;-74
2023/09/04 15:35:12;;;;;;;3.42;1.90;;;;;;;26.68;31.96;101171.69;4907680;29;20217;-73
2023/09/04 15:37:39;;;;;;;10.73;2.20;;;;;;;26.66;32.67;101165.66;4909180;29;20221;-76
2023/09/04 15:40:10;;;;;;;7.43;2.50;;;;;;;26.63;33.03;101168.88;4908765;29;20241;-70
2023/09/04 15:42:37;;;;;;;3.42;2.08;;;;;;;26.58;32.23;101164.94;4907483;29;20268;-72
2023/09/04 15:45:09;;;;;;;4.80;2.33;;;;;;;26.72;31.84;101162.00;4908050;29;20742;-73
2023/09/04 15:47:40;;;;;;;3.78;2.28;;;;;;;26.68;31.97;101153.47;4905437;29;20563;-73
2023/09/04 15:50:10;;;;;;;3.45;2.10;;;;;;;26.66;32.09;101146.63;4908282;29;20291;-73
2023/09/04 15:52:38;;;;;;;3.15;1.92;;;;;;;26.60;32.47;101143.78;4908279;29;20602;-74
2023/09/04 15:55:07;;;;;;;5.45;2.00;;;;;;;26.65;32.34;101150.44;4908423;29;20205;-71
2023/09/04 15:57:37;;;;;;;4.90;2.30;;;;;;;26.64;32.35;101148.75;4909016;29;20205;-73
2023/09/04 16:00:06;;;;;;;5.05;2.42;;;;;;;26.57;32.46;101151.59;4907589;29;20223;-73
2023/09/04 16:02:34;;;;;;;5.63;2.65;;;;;;;26.53;33.28;101151.25;4907554;29;20315;-73
2023/09/04 16:05:02;;;;;;;3.50;2.40;;;;;;;26.51;33.35;101153.38;4908469;29;20626;-72
2023/09/04 16:07:30;;;;;;;3.78;2.40;;;;;;;26.47;33.24;101148.66;4906139;29;20221;-72
2023/09/04 16:09:58;;;;;;;3.78;2.10;;;;;;;26.43;32.81;101150.19;4912015;29;20746;-74
2023/09/04 16:12:25;;;;;;;3.85;2.38;;;;;;;26.47;33.00;101148.66;4911549;29;20232;-73
2023/09/04 16:14:55;;;;;;;3.20;1.80;;;;;;;26.47;33.65;101149.50;4911187;29;20300;-72
2023/09/04 16:17:23;;;;;;;6.03;2.35;;;;;;;26.44;33.87;101143.69;4912110;29;20607;-72
2023/09/04 16:19:51;;;;;;;3.85;2.08;;;;;;;26.41;34.48;101144.97;4911859;29;20565;-72
2023/09/04 16:22:20;;;;;;;3.92;2.00;;;;;;;26.43;34.54;101142.84;4913206;29;20244;-71
2023/09/04 16:24:48;;;;;;;3.17;1.88;;;;;;;26.42;34.14;101138.47;4913112;29;20200;-72
2023/09/04 16:27:15;;;;;;;2.90;1.85;;;;;;;26.38;34.83;101136.47;4911122;29;20223;-73
2023/09/04 16:29:43;;;;;;;4.45;2.25;;;;;;;26.33;34.96;101134.44;4911309;29;20648;-71
2023/09/04 16:32:12;;;;;;;3.80;1.80;;;;;;;26.34;36.29;101133.38;4915827;29;20216;-70
2023/09/04 16:34:40;;;;;;;3.17;1.90;;;;;;;26.28;36.93;101131.63;4912903;29;20212;-72
2023/09/04 16:37:08;;;;;;;4.07;2.50;;;;;;;26.25;37.52;101134.78;4912185;29;20268;-69
2023/09/04 16:39:36;;;;;;;3.35;2.08;;;;;;;26.21;37.66;101128.97;4912464;29;20236;-71
2023/09/04 16:42:04;;;;;;;3.67;2.10;;;;;;;26.18;38.05;101126.75;4911559;29;20633;-71
2023/09/04 16:44:32;;;;;;;6.07;1.95;;;;;;;26.17;38.26;101125.06;4911729;29;20241;-73
2023/09/04 16:47:00;;;;;;;3.42;1.85;;;;;;;26.20;38.12;101129.22;4911897;29;20213;-71
2023/09/04 16:49:29;;;;;;;4.20;2.25;;;;;;;26.16;38.50;101125.31;4913033;29;20667;-72
2023/09/04 16:51:57;;;;;;;5.05;2.35;;;;;;;26.10;38.25;101128.97;4912046;29;20226;-72
2023/09/04 16:54:27;;;;;;;6.72;2.40;;;;;;;26.09;39.10;101132.75;4911285;29;20211;-73
2023/09/04 16:56:55;;;;;;;3.53;2.08;;;;;;;26.05;39.08;101129.66;4911793;29;20213;-70
2023/09/04 16:59:23;;;;;;;3.65;1.95;;;;;;;26.02;39.62;101126.59;4912756;29;20220;-74
2023/09/04 17:01:51;;;;;;;3.80;2.13;;;;;;;26.01;39.20;101122.22;4912431;29;20205;-70
2023/09/04 17:04:19;;;;;;;4.35;1.98;;;;;;;25.98;38.98;101122.69;4910847;29;20228;-72
2023/09/04 17:06:48;;;;;;;4.78;2.20;;;;;;;25.94;39.13;101122.34;4911186;29;20197;-71
2023/09/04 17:09:16;;;;;;;3.95;2.10;;;;;;;25.91;39.54;101120.06;4912003;29;20295;-73
2023/09/04 17:11:44;;;;;;;5.47;2.38;;;;;;;25.89;39.58;101113.22;4912414;29;20217;-74
2023/09/04 17:14:12;;;;;;;6.45;2.60;;;;;;;25.86;39.04;101109.88;4912518;29;20259;-73
2023/09/04 17:16:40;;;;;;;3.08;1.92;;;;;;;25.83;39.01;101107.66;4911344;29;20261;-74
2023/09/04 17:19:07;;;;;;;4.15;2.50;;;;;;;25.80;39.09;101105.41;4910311;29;20201;-74
2023/09/04 17:21:35;;;;;;;3.72;2.17;;;;;;;25.77;39.30;101105.06;4911270;29;20243;-72
2023/09/04 17:24:05;;;;;;;6.05;2.85;;;;;;;25.69;40.59;101106.19;4908942;29;20260;-71
2023/09/04 17:26:35;;;;;;;4.15;2.33;;;;;;;25.65;40.14;101107.72;4911026;29;20817;-72
2023/09/04 17:29:03;;;;;;;5.55;2.60;;;;;;;25.60;40.37;101104.88;4910757;29;20272;-72
2023/09/04 17:31:31;;;;;;;3.67;2.33;;;;;;;25.56;40.38;101106.38;4910345;29;20209;-73
2023/09/04 17:34:00;;;;;;;5.22;2.58;;;;;;;25.54;41.03;101105.78;4911818;29;20208;-77
2023/09/04 17:36:27;;;;;;;5.72;2.10;;;;;;;25.48;41.24;101106.72;4911705;29;20295;-71
2023/09/04 17:38:56;;;;;;;5.00;2.17;;;;;;;25.44;41.46;101105.50;4911689;29;20213;-70
2023/09/04 17:41:25;;;;;;;5.15;2.58;;;;;;;25.39;41.92;101102.66;4911594;29;20236;-71
2023/09/04 17:43:54;;;;;;;4.28;2.53;;;;;;;25.36;41.89;101103.09;4910011;29;20319;-75
2023/09/04 17:46:22;;;;;;;5.50;2.80;;;;;;;25.31;42.27;101105.69;4910797;29;20220;-72
2023/09/04 17:48:50;;;;;;;6.60;2.67;;;;;;;25.26;42.50;101102.81;4910788;29;20220;-73
2023/09/04 17:51:18;;;;;;;6.85;2.50;;;;;;;25.22;42.48;101107.06;4912933;29;20219;-71
2023/09/04 17:53:47;;;;;;;4.90;2.80;;;;;;;25.18;42.22;101105.84;4912492;29;20291;-73
2023/09/04 17:56:16;;;;;;;4.88;2.50;;;;;;;25.13;42.91;101109.28;4911523;29;20213;-74
2023/09/04 17:58:45;;;;;;;8.65;3.83;;;;;;;25.08;42.74;101118.06;4910514;29;20209;-73
2023/09/04 18:01:17;;;;;;;4.82;3.03;;;;;;;25.06;42.99;101124.81;4911887;29;20209;-75
2023/09/04 18:03:45;;;;;;;5.75;3.47;;;;;;;25.00;43.39;101123.81;4912847;29;20236;-73
2023/09/04 18:06:14;;;;;;;11.55;3.90;;;;;;;24.95;43.56;101129.09;4912782;29;20268;-71
2023/09/04 18:08:43;;;;;;;6.50;3.90;;;;;;;24.90;43.56;101114.50;4910691;29;20220;-72
2023/09/04 18:11:14;;;;;;;7.47;4.00;;;;;;;24.85;44.20;101117.91;4910963;29;20212;-71
2023/09/04 18:13:42;;;;;;;4.60;3.08;;;;;;;24.80;44.19;101120.50;4912754;29;20583;-74
2023/09/04 18:16:16;;;;;;;5.72;3.55;;;;;;;24.76;44.16;101124.69;4911791;29;20209;-74
2023/09/04 18:18:45;;;;;;;7.47;3.10;;;;;;;24.70;44.45;101125.59;4910431;29;20213;-74